Time;durP1;ratioP1;P1;durP2;ratioP2;P2;SDS_P1;SDS_P2;PMS_P1;PMS_P2;Temp;Humidity;BMP_temperature;BMP_pressure;BME280_temperature;BME280_humidity;BME280_pressure;Samples;Min_cycle;Max_cycle;Signal;HPM_P1;HPM_P2
2023/03/14 00:00:12;;;;;;;1.65;0.70;;;;;;;;;;4935375;28;20074;-83
2023/03/14 00:02:38;;;;;;;0.63;0.40;;;;;;;;;;4954293;28;20041;-82
2023/03/14 00:05:06;;;;;;;0.30;0.30;;;;;;;;;;4941630;28;20274;-82
2023/03/14 00:07:35;;;;;;;0.30;0.30;;;;;;;;;;4944879;28;20197;-80
2023/03/14 00:10:05;;;;;;;0.30;0.30;;;;;;;;;;4976267;28;20039;-84
2023/03/14 00:12:31;;;;;;;0.60;0.60;;;;;;;;;;4960922;28;20034;-85
2023/03/14 00:14:57;;;;;;;0.63;0.40;;;;;;;;;;4949943;28;20031;-82
2023/03/14 00:17:22;;;;;;;0.93;0.45;;;;;;;;;;4966049;28;20037;-82
2023/03/14 00:19:52;;;;;;;0.82;0.50;;;;;;;;;;4947757;28;20766;-81
2023/03/14 00:22:17;;;;;;;0.40;0.30;;;;;;;;;;4950150;28;20054;-84
2023/03/14 00:24:42;;;;;;;0.40;0.40;;;;;;;;;;4972910;28;20057;-82
2023/03/14 00:27:08;;;;;;;0.35;0.35;;;;;;;;;;4974345;28;20033;-82
2023/03/14 00:29:33;;;;;;;0.80;0.50;;;;;;;;;;4975069;28;20057;-83
2023/03/14 00:31:58;;;;;;;0.20;0.20;;;;;;;;;;4954753;28;20038;-84
2023/03/14 00:34:28;;;;;;;1.13;0.60;;;;;;;;;;4947547;28;20034;-86
2023/03/14 00:36:54;;;;;;;0.63;0.63;;;;;;;;;;4950301;28;20027;-88
2023/03/14 00:39:19;;;;;;;0.88;0.80;;;;;;;;;;4953726;28;20027;-85
2023/03/14 00:41:45;;;;;;;1.70;0.80;;;;;;;;;;4957207;28;20070;-85
2023/03/14 00:44:11;;;;;;;0.52;0.52;;;;;;;;;;4966820;28;20552;-82
2023/03/14 00:46:36;;;;;;;0.55;0.50;;;;;;;;;;4967447;28;20043;-83
2023/03/14 00:49:01;;;;;;;0.40;0.40;;;;;;;;;;4954765;28;20423;-83
2023/03/14 00:51:27;;;;;;;0.57;0.57;;;;;;;;;;4952640;28;20098;-81
2023/03/14 00:53:52;;;;;;;2.17;0.60;;;;;;;;;;4955587;28;20054;-83
2023/03/14 00:56:17;;;;;;;0.30;0.30;;;;;;;;;;4968678;28;20081;-83
2023/03/14 00:58:43;;;;;;;0.57;0.38;;;;;;;;;;4970386;28;20033;-85
2023/03/14 01:01:14;;;;;;;0.40;0.40;;;;;;;;;;4972607;28;20038;-82
2023/03/14 01:03:39;;;;;;;0.50;0.50;;;;;;;;;;4973916;28;20057;-84
2023/03/14 01:06:13;;;;;;;0.90;0.80;;;;;;;;;;4974940;28;20034;-83
2023/03/14 01:08:38;;;;;;;2.10;0.60;;;;;;;;;;4958772;28;20018;-85
2023/03/14 01:11:09;;;;;;;2.22;0.70;;;;;;;;;;4964120;28;20078;-81
2023/03/14 01:13:35;;;;;;;0.50;0.50;;;;;;;;;;4968122;28;20022;-83
2023/03/14 01:16:06;;;;;;;0.65;0.47;;;;;;;;;;4951175;28;20043;-83
2023/03/14 01:18:32;;;;;;;0.95;0.52;;;;;;;;;;4962838;28;20038;-82
2023/03/14 01:20:58;;;;;;;1.45;0.55;;;;;;;;;;4966686;28;21377;-84
2023/03/14 01:23:24;;;;;;;1.63;0.45;;;;;;;;;;4967961;28;20038;-86
2023/03/14 01:25:49;;;;;;;0.50;0.50;;;;;;;;;;4961321;28;20169;-82
2023/03/14 01:28:15;;;;;;;0.88;0.80;;;;;;;;;;4947569;28;20058;-85
2023/03/14 01:30:41;;;;;;;0.47;0.47;;;;;;;;;;4953377;28;20030;-82
2023/03/14 01:33:06;;;;;;;0.70;0.70;;;;;;;;;;4950232;28;20030;-82
2023/03/14 01:35:32;;;;;;;0.47;0.47;;;;;;;;;;4946952;28;20058;-82
2023/03/14 01:37:57;;;;;;;0.40;0.40;;;;;;;;;;4964070;28;20038;-83
2023/03/14 01:40:22;;;;;;;0.50;0.50;;;;;;;;;;4965954;28;20035;-85
2023/03/14 01:43:04;;;;;;;0.60;0.60;;;;;;;;;;4947977;28;20057;-83
2023/03/14 01:45:57;;;;;;;0.63;0.38;;;;;;;;;;4964849;28;20023;-83
2023/03/14 01:48:24;;;;;;;0.57;0.35;;;;;;;;;;4961320;28;20023;-83
2023/03/14 01:50:49;;;;;;;0.75;0.75;;;;;;;;;;4973410;28;20019;-84
2023/03/14 01:53:15;;;;;;;1.10;0.60;;;;;;;;;;4967942;28;20112;-84
2023/03/14 01:55:41;;;;;;;0.43;0.40;;;;;;;;;;4948092;28;20062;-83
2023/03/14 01:58:08;;;;;;;0.52;0.52;;;;;;;;;;4964906;28;20039;-83
2023/03/14 02:00:33;;;;;;;0.40;0.40;;;;;;;;;;4968670;28;20038;-83
2023/03/14 02:03:04;;;;;;;0.50;0.50;;;;;;;;;;4964901;28;20172;-83
2023/03/14 02:05:34;;;;;;;0.90;0.60;;;;;;;;;;4963412;28;20031;-84
2023/03/14 02:08:01;;;;;;;1.00;0.30;;;;;;;;;;4950590;28;20133;-82
2023/03/14 02:10:30;;;;;;;0.68;0.47;;;;;;;;;;4961757;28;20138;-82
2023/03/14 02:12:57;;;;;;;0.35;0.32;;;;;;;;;;4970954;28;20042;-82
2023/03/14 02:15:23;;;;;;;0.75;0.50;;;;;;;;;;4956664;28;20023;-83
2023/03/14 02:17:49;;;;;;;0.73;0.50;;;;;;;;;;4971563;28;20066;-84
2023/03/14 02:20:29;;;;;;;1.58;0.60;;;;;;;;;;4964984;28;20173;-83
2023/03/14 02:22:55;;;;;;;0.65;0.40;;;;;;;;;;4967302;28;20045;-84
2023/03/14 02:25:41;;;;;;;1.67;0.60;;;;;;;;;;4965019;28;20046;-84
2023/03/14 02:28:06;;;;;;;0.30;0.30;;;;;;;;;;4963852;28;20037;-82
2023/03/14 02:30:33;;;;;;;4.13;0.60;;;;;;;;;;4958780;28;20520;-83
2023/03/14 02:33:20;;;;;;;0.85;0.52;;;;;;;;;;4966464;28;20038;-80
2023/03/14 02:35:50;;;;;;;0.65;0.43;;;;;;;;;;4949537;28;20101;-82
2023/03/14 02:38:25;;;;;;;1.58;0.50;;;;;;;;;;4949237;28;20050;-83
2023/03/14 02:40:51;;;;;;;1.48;0.60;;;;;;;;;;4962043;28;20027;-85
2023/03/14 02:43:16;;;;;;;3.25;0.82;;;;;;;;;;4964444;28;20031;-83
2023/03/14 02:45:49;;;;;;;0.52;0.52;;;;;;;;;;4949908;28;20137;-83
2023/03/14 02:48:38;;;;;;;0.50;0.50;;;;;;;;;;4968957;28;20701;-83
2023/03/14 02:51:04;;;;;;;0.40;0.40;;;;;;;;;;4967103;28;20408;-83
2023/03/14 02:53:33;;;;;;;0.30;0.30;;;;;;;;;;4967819;28;20852;-86
2023/03/14 02:55:58;;;;;;;0.93;0.52;;;;;;;;;;4965963;28;20082;-83
2023/03/14 02:58:24;;;;;;;0.40;0.40;;;;;;;;;;4944683;28;20068;-83
2023/03/14 03:00:50;;;;;;;0.30;0.30;;;;;;;;;;4962844;28;20046;-83
2023/03/14 03:03:16;;;;;;;1.17;0.40;;;;;;;;;;4963239;28;20042;-83
2023/03/14 03:05:43;;;;;;;1.65;0.50;;;;;;;;;;4951739;28;20035;-83
2023/03/14 03:08:09;;;;;;;0.55;0.40;;;;;;;;;;4954593;28;20062;-85
2023/03/14 03:10:35;;;;;;;1.92;0.50;;;;;;;;;;4944688;28;20034;-85
2023/03/14 03:13:00;;;;;;;0.35;0.35;;;;;;;;;;4967968;28;20076;-85
2023/03/14 03:15:26;;;;;;;0.40;0.40;;;;;;;;;;4972150;28;20035;-84
2023/03/14 03:17:51;;;;;;;3.50;0.75;;;;;;;;;;4952992;28;20034;-84
2023/03/14 03:20:17;;;;;;;0.50;0.50;;;;;;;;;;4959026;28;20059;-82
2023/03/14 03:22:42;;;;;;;2.83;0.47;;;;;;;;;;4964628;28;20039;-83
2023/03/14 03:25:09;;;;;;;1.13;0.30;;;;;;;;;;4952768;28;20031;-83
2023/03/14 03:27:35;;;;;;;1.33;0.70;;;;;;;;;;4942976;28;20038;-83
2023/03/14 03:30:02;;;;;;;0.95;0.50;;;;;;;;;;4957959;28;20030;-82
2023/03/14 03:32:27;;;;;;;0.82;0.50;;;;;;;;;;4943720;28;20686;-82
2023/03/14 03:34:53;;;;;;;0.73;0.47;;;;;;;;;;4961588;28;20061;-83
2023/03/14 03:37:18;;;;;;;0.60;0.40;;;;;;;;;;4944834;28;20170;-83
2023/03/14 03:39:44;;;;;;;0.77;0.75;;;;;;;;;;4942338;28;20094;-84
2023/03/14 03:42:10;;;;;;;4.53;0.82;;;;;;;;;;4959384;28;20038;-83
2023/03/14 03:44:35;;;;;;;1.20;0.43;;;;;;;;;;4959140;28;20046;-83
2023/03/14 03:47:01;;;;;;;0.57;0.57;;;;;;;;;;4948144;28;20019;-82
2023/03/14 03:49:31;;;;;;;0.40;0.40;;;;;;;;;;4962657;28;20097;-83
2023/03/14 03:51:56;;;;;;;1.10;0.68;;;;;;;;;;4961033;28;20504;-83
2023/03/14 03:54:22;;;;;;;5.00;0.65;;;;;;;;;;4952320;28;20037;-83
2023/03/14 03:56:47;;;;;;;1.05;0.70;;;;;;;;;;4951983;28;20041;-82
2023/03/14 03:59:12;;;;;;;0.95;0.52;;;;;;;;;;4935801;28;20725;-82
2023/03/14 04:01:38;;;;;;;0.70;0.50;;;;;;;;;;4947882;28;20035;-84
2023/03/14 04:04:03;;;;;;;0.50;0.50;;;;;;;;;;4933277;28;20035;-83
2023/03/14 04:06:29;;;;;;;0.95;0.57;;;;;;;;;;4949280;28;20031;-82
2023/03/14 04:08:54;;;;;;;1.00;0.50;;;;;;;;;;4948146;28;20054;-83
2023/03/14 04:11:19;;;;;;;1.33;0.43;;;;;;;;;;4945415;28;20507;-82
2023/03/14 04:13:45;;;;;;;0.82;0.75;;;;;;;;;;4931557;28;20038;-83
2023/03/14 04:16:17;;;;;;;1.30;0.50;;;;;;;;;;4933559;28;20031;-83
2023/03/14 04:18:42;;;;;;;2.13;0.63;;;;;;;;;;4952152;28;20776;-84
2023/03/14 04:21:07;;;;;;;0.50;0.50;;;;;;;;;;4937130;28;20070;-83
2023/03/14 04:23:33;;;;;;;2.65;0.60;;;;;;;;;;4953211;28;20057;-85
2023/03/14 04:25:58;;;;;;;0.73;0.63;;;;;;;;;;4963353;28;20069;-84
2023/03/14 04:28:24;;;;;;;1.00;0.70;;;;;;;;;;4953568;28;20094;-83
2023/03/14 04:30:49;;;;;;;1.55;0.90;;;;;;;;;;4962880;28;20035;-83
2023/03/14 04:33:17;;;;;;;1.98;0.40;;;;;;;;;;4965489;28;20030;-83
2023/03/14 04:35:43;;;;;;;4.28;1.15;;;;;;;;;;4943528;28;20034;-83
2023/03/14 04:38:08;;;;;;;0.55;0.55;;;;;;;;;;4969185;28;20035;-83
2023/03/14 04:40:36;;;;;;;0.93;0.70;;;;;;;;;;4955297;23;20046;-82
2023/03/14 04:43:01;;;;;;;2.38;1.10;;;;;;;;;;4939750;28;20122;-82
2023/03/14 04:45:26;;;;;;;1.45;0.50;;;;;;;;;;4923512;28;20031;-82
2023/03/14 04:47:52;;;;;;;0.63;0.63;;;;;;;;;;4940611;28;20027;-81
2023/03/14 04:50:17;;;;;;;2.45;0.52;;;;;;;;;;4933150;28;20045;-83
2023/03/14 04:52:42;;;;;;;1.45;0.70;;;;;;;;;;4963739;28;20041;-81
2023/03/14 04:55:08;;;;;;;4.65;1.17;;;;;;;;;;4950642;28;20027;-82
2023/03/14 04:57:33;;;;;;;4.50;0.65;;;;;;;;;;4948978;28;20126;-82
2023/03/14 04:59:58;;;;;;;1.55;0.65;;;;;;;;;;4964639;28;20468;-78
2023/03/14 05:02:24;;;;;;;3.10;0.60;;;;;;;;;;4967382;28;20523;-83
2023/03/14 05:04:49;;;;;;;2.58;0.82;;;;;;;;;;4966060;28;20469;-82
2023/03/14 05:07:14;;;;;;;1.60;0.70;;;;;;;;;;4947569;28;20298;-83
2023/03/14 05:09:40;;;;;;;0.65;0.57;;;;;;;;;;4947812;28;20042;-79
2023/03/14 05:12:05;;;;;;;4.85;0.90;;;;;;;;;;4950712;28;20113;-82
2023/03/14 05:14:31;;;;;;;3.78;0.80;;;;;;;;;;4966351;28;20106;-81
2023/03/14 05:16:56;;;;;;;4.50;0.57;;;;;;;;;;4951413;28;20027;-82
2023/03/14 05:19:22;;;;;;;7.90;1.05;;;;;;;;;;4947094;28;20071;-79
2023/03/14 05:21:47;;;;;;;2.70;0.77;;;;;;;;;;4949371;28;20038;-83
2023/03/14 05:24:12;;;;;;;2.28;1.10;;;;;;;;;;4966298;28;20152;-82
2023/03/14 05:26:37;;;;;;;1.85;0.73;;;;;;;;;;4948372;28;20030;-83
2023/03/14 05:29:03;;;;;;;2.75;0.70;;;;;;;;;;4945913;28;20023;-83
2023/03/14 05:31:28;;;;;;;1.42;0.98;;;;;;;;;;4949524;28;20030;-80
2023/03/14 05:33:53;;;;;;;1.98;0.73;;;;;;;;;;4966276;28;20031;-79
2023/03/14 05:36:19;;;;;;;2.65;0.68;;;;;;;;;;4948392;28;20043;-79
2023/03/14 05:38:44;;;;;;;0.32;0.22;;;;;;;;;;4950205;28;20407;-79
2023/03/14 05:41:09;;;;;;;4.88;1.33;;;;;;;;;;4948900;28;20022;-80
2023/03/14 05:43:36;;;;;;;3.25;0.73;;;;;;;;;;4970153;28;20045;-80
2023/03/14 05:46:01;;;;;;;1.33;0.68;;;;;;;;;;4953561;28;20034;-80
2023/03/14 05:48:26;;;;;;;2.13;0.73;;;;;;;;;;4952638;28;20031;-80
2023/03/14 05:50:59;;;;;;;3.03;0.90;;;;;;;;;;4968479;28;20516;-81
2023/03/14 05:53:25;;;;;;;2.85;0.63;;;;;;;;;;4952916;28;20513;-80
2023/03/14 05:55:54;;;;;;;0.90;0.50;;;;;;;;;;4951876;28;20561;-81
2023/03/14 05:58:19;;;;;;;4.22;1.25;;;;;;;;;;4949907;28;20477;-80
2023/03/14 06:00:45;;;;;;;4.13;0.50;;;;;;;;;;4967948;28;20109;-80
2023/03/14 06:03:10;;;;;;;2.63;1.10;;;;;;;;;;4952341;28;20914;-81
2023/03/14 06:05:35;;;;;;;3.95;1.38;;;;;;;;;;4953813;28;20107;-80
2023/03/14 06:08:01;;;;;;;1.02;0.70;;;;;;;;;;4968577;28;20035;-82
2023/03/14 06:10:26;;;;;;;0.73;0.52;;;;;;;;;;4953541;28;20058;-80
2023/03/14 06:12:52;;;;;;;1.77;0.73;;;;;;;;;;4964873;28;20046;-80
2023/03/14 06:15:17;;;;;;;0.93;0.50;;;;;;;;;;4948338;28;20031;-81
2023/03/14 06:17:42;;;;;;;1.55;0.52;;;;;;;;;;4945799;28;20036;-80
2023/03/14 06:20:09;;;;;;;0.43;0.43;;;;;;;;;;4945595;28;20121;-81
2023/03/14 06:22:34;;;;;;;3.33;0.77;;;;;;;;;;4965525;28;20102;-80
2023/03/14 06:25:00;;;;;;;1.38;0.63;;;;;;;;;;4947170;28;20173;-81
2023/03/14 06:27:25;;;;;;;2.33;0.80;;;;;;;;;;4943585;28;20038;-82
2023/03/14 06:29:50;;;;;;;1.00;0.55;;;;;;;;;;4974459;28;20039;-81
2023/03/14 06:32:16;;;;;;;3.75;0.73;;;;;;;;;;4943142;28;20042;-81
2023/03/14 06:34:41;;;;;;;0.45;0.43;;;;;;;;;;4948855;28;20313;-81
2023/03/14 06:37:06;;;;;;;1.60;0.40;;;;;;;;;;4943359;28;20035;-81
2023/03/14 06:39:32;;;;;;;0.40;0.40;;;;;;;;;;4942569;28;20034;-81
2023/03/14 06:41:57;;;;;;;1.55;0.60;;;;;;;;;;4960991;28;20752;-81
2023/03/14 06:44:22;;;;;;;1.60;0.73;;;;;;;;;;4960929;28;20031;-80
2023/03/14 06:46:48;;;;;;;2.92;0.65;;;;;;;;;;4963162;28;20056;-81
2023/03/14 06:49:13;;;;;;;0.47;0.47;;;;;;;;;;4962558;28;20026;-78
2023/03/14 06:51:38;;;;;;;0.68;0.60;;;;;;;;;;4971275;28;20575;-82
2023/03/14 06:54:04;;;;;;;2.50;0.47;;;;;;;;;;4970634;28;20034;-82
2023/03/14 06:56:29;;;;;;;0.60;0.60;;;;;;;;;;4977103;28;20022;-82
2023/03/14 06:58:55;;;;;;;2.15;0.65;;;;;;;;;;4975925;28;20089;-82
2023/03/14 07:01:26;;;;;;;3.05;0.68;;;;;;;;;;4966333;28;20033;-82
2023/03/14 07:03:51;;;;;;;3.53;0.77;;;;;;;;;;4973685;28;20035;-82
2023/03/14 07:06:17;;;;;;;0.75;0.40;;;;;;;;;;4960496;28;20065;-82
2023/03/14 07:08:42;;;;;;;3.13;0.77;;;;;;;;;;4965943;28;20030;-82
2023/03/14 07:11:09;;;;;;;0.95;0.50;;;;;;;;;;4961243;28;20088;-82
2023/03/14 07:13:35;;;;;;;0.60;0.60;;;;;;;;;;4961391;28;20558;-80
2023/03/14 07:16:00;;;;;;;1.50;0.60;;;;;;;;;;4959466;28;20105;-83
2023/03/14 07:18:25;;;;;;;1.45;0.40;;;;;;;;;;4961814;28;20142;-82
2023/03/14 07:20:51;;;;;;;0.63;0.43;;;;;;;;;;4974400;28;20035;-83
2023/03/14 07:23:16;;;;;;;0.75;0.55;;;;;;;;;;4958731;28;20493;-82
2023/03/14 07:25:41;;;;;;;1.05;0.32;;;;;;;;;;4964651;28;20476;-83
2023/03/14 07:28:07;;;;;;;3.20;0.45;;;;;;;;;;4967818;28;20081;-84
2023/03/14 07:30:32;;;;;;;0.85;0.32;;;;;;;;;;4953987;28;20065;-82
2023/03/14 07:32:58;;;;;;;1.38;0.45;;;;;;;;;;4982202;28;20101;-86
2023/03/14 07:35:23;;;;;;;2.78;0.60;;;;;;;;;;4971846;28;20026;-82
2023/03/14 07:37:48;;;;;;;0.90;0.40;;;;;;;;;;4982622;28;20081;-82
2023/03/14 07:40:14;;;;;;;1.02;0.50;;;;;;;;;;4976975;28;20557;-82
2023/03/14 07:42:41;;;;;;;1.20;0.30;;;;;;;;;;4958311;28;20027;-82
2023/03/14 07:45:08;;;;;;;0.93;0.47;;;;;;;;;;4975658;28;20062;-82
2023/03/14 07:47:33;;;;;;;1.75;0.63;;;;;;;;;;4975017;28;20042;-82
2023/03/14 07:49:58;;;;;;;0.93;0.50;;;;;;;;;;4974937;28;20050;-82
2023/03/14 07:52:24;;;;;;;2.45;0.50;;;;;;;;;;4975789;28;20038;-81
2023/03/14 07:54:49;;;;;;;0.75;0.50;;;;;;;;;;4958215;28;20027;-82
2023/03/14 07:57:14;;;;;;;1.02;0.38;;;;;;;;;;4958548;28;20031;-80
2023/03/14 07:59:40;;;;;;;0.95;0.47;;;;;;;;;;4975246;28;20027;-81
2023/03/14 08:02:10;;;;;;;0.70;0.70;;;;;;;;;;4965754;28;20126;-81
2023/03/14 08:04:36;;;;;;;1.65;0.52;;;;;;;;;;4976761;28;20027;-81
2023/03/14 08:07:01;;;;;;;0.77;0.45;;;;;;;;;;4958469;28;20027;-81
2023/03/14 08:09:27;;;;;;;0.52;0.40;;;;;;;;;;4975311;28;20029;-82
2023/03/14 08:11:52;;;;;;;0.40;0.38;;;;;;;;;;4991149;28;20061;-82
2023/03/14 08:14:18;;;;;;;1.83;0.68;;;;;;;;;;4958807;28;20026;-81
2023/03/14 08:16:43;;;;;;;2.70;0.63;;;;;;;;;;4976411;28;20034;-81
2023/03/14 08:19:08;;;;;;;0.60;0.30;;;;;;;;;;4976277;28;20027;-82
2023/03/14 08:21:34;;;;;;;0.95;0.43;;;;;;;;;;4961804;28;20118;-82
2023/03/14 08:24:00;;;;;;;0.70;0.32;;;;;;;;;;4962388;28;20038;-81
2023/03/14 08:26:25;;;;;;;1.15;0.47;;;;;;;;;;4958970;28;20039;-81
2023/03/14 08:28:51;;;;;;;0.68;0.40;;;;;;;;;;4977812;28;20026;-81
2023/03/14 08:31:16;;;;;;;0.20;0.10;;;;;;;;;;4979679;28;20038;-82
2023/03/14 08:33:42;;;;;;;5.20;0.40;;;;;;;;;;4979821;28;20115;-81
2023/03/14 08:36:07;;;;;;;0.63;0.40;;;;;;;;;;4962598;28;20413;-82
2023/03/14 08:38:33;;;;;;;0.28;0.28;;;;;;;;;;4978900;28;20026;-81
2023/03/14 08:40:59;;;;;;;0.52;0.28;;;;;;;;;;4979979;28;20027;-81
2023/03/14 08:43:26;;;;;;;0.60;0.28;;;;;;;;;;4980114;28;20023;-81
2023/03/14 08:45:51;;;;;;;0.65;0.32;;;;;;;;;;4971507;28;20026;-82
2023/03/14 08:48:16;;;;;;;1.63;0.50;;;;;;;;;;4961784;28;20027;-81
2023/03/14 08:50:42;;;;;;;0.32;0.30;;;;;;;;;;4978881;28;20033;-81
2023/03/14 08:53:07;;;;;;;0.20;0.20;;;;;;;;;;4963600;28;20033;-80
2023/03/14 08:55:32;;;;;;;3.17;0.30;;;;;;;;;;4964440;28;20031;-81
2023/03/14 08:57:57;;;;;;;0.80;0.43;;;;;;;;;;4963221;28;20054;-81
2023/03/14 09:00:23;;;;;;;1.15;0.32;;;;;;;;;;4972958;28;20110;-81
2023/03/14 09:02:50;;;;;;;1.10;0.22;;;;;;;;;;4962675;28;20101;-82
2023/03/14 09:05:18;;;;;;;0.10;0.10;;;;;;;;;;4978839;28;20097;-82
2023/03/14 09:07:43;;;;;;;1.90;0.50;;;;;;;;;;4961371;28;20095;-81
2023/03/14 09:10:10;;;;;;;1.08;0.50;;;;;;;;;;4964596;28;20026;-83
2023/03/14 09:12:35;;;;;;;1.48;0.40;;;;;;;;;;4964604;28;20027;-83
2023/03/14 09:15:01;;;;;;;1.65;0.57;;;;;;;;;;4979476;28;20058;-83
2023/03/14 09:17:26;;;;;;;0.98;0.20;;;;;;;;;;4964443;28;20438;-82
2023/03/14 09:19:52;;;;;;;0.28;0.20;;;;;;;;;;4981443;28;20118;-83
2023/03/14 09:22:17;;;;;;;1.90;0.40;;;;;;;;;;4980907;28;20121;-83
2023/03/14 09:24:42;;;;;;;0.63;0.20;;;;;;;;;;4979567;28;20058;-84
2023/03/14 09:27:08;;;;;;;0.45;0.45;;;;;;;;;;4964164;28;20023;-83
2023/03/14 09:29:34;;;;;;;0.20;0.20;;;;;;;;;;4958287;28;20030;-82
2023/03/14 09:31:59;;;;;;;0.60;0.47;;;;;;;;;;4958983;28;20026;-83
2023/03/14 09:34:28;;;;;;;0.15;0.15;;;;;;;;;;4961771;28;20026;-82
2023/03/14 09:36:53;;;;;;;0.80;0.22;;;;;;;;;;4961097;28;20081;-82
2023/03/14 09:39:18;;;;;;;0.30;0.30;;;;;;;;;;4961500;28;20031;-82
2023/03/14 09:41:50;;;;;;;0.90;0.20;;;;;;;;;;4961246;28;20045;-83
2023/03/14 09:44:28;;;;;;;0.80;0.43;;;;;;;;;;4980286;28;20041;-82
2023/03/14 09:46:58;;;;;;;0.30;0.30;;;;;;;;;;4962185;28;20097;-82
2023/03/14 09:49:29;;;;;;;0.20;0.20;;;;;;;;;;4971943;28;20051;-82
2023/03/14 09:52:02;;;;;;;0.20;0.20;;;;;;;;;;4981281;28;20039;-83
2023/03/14 09:54:36;;;;;;;0.80;0.25;;;;;;;;;;4981959;28;20022;-83
2023/03/14 09:57:04;;;;;;;1.45;0.30;;;;;;;;;;4995780;28;20039;-83
2023/03/14 09:59:30;;;;;;;0.80;0.30;;;;;;;;;;4981800;28;20015;-83
2023/03/14 10:02:01;;;;;;;0.30;0.30;;;;;;;;;;4999159;28;20026;-83
2023/03/14 10:04:28;;;;;;;4.93;0.50;;;;;;;;;;4982466;28;20552;-83
2023/03/14 10:06:53;;;;;;;0.32;0.32;;;;;;;;;;4995315;28;20045;-82
2023/03/14 10:09:26;;;;;;;0.25;0.25;;;;;;;;;;4979071;28;20007;-82
2023/03/14 10:11:57;;;;;;;3.90;0.32;;;;;;;;;;4978756;28;20027;-82
2023/03/14 10:14:33;;;;;;;0.25;0.15;;;;;;;;;;4978379;28;20074;-84
2023/03/14 10:17:12;;;;;;;0.40;0.20;;;;;;;;;;4980768;28;20041;-83
2023/03/14 10:19:50;;;;;;;0.30;0.30;;;;;;;;;;5004465;28;20082;-81
2023/03/14 10:22:17;;;;;;;0.20;0.20;;;;;;;;;;4971192;28;20074;-82
2023/03/14 10:24:46;;;;;;;0.20;0.20;;;;;;;;;;4975043;28;20026;-83
2023/03/14 10:27:28;;;;;;;0.15;0.15;;;;;;;;;;4952828;28;20061;-86
2023/03/14 10:30:08;;;;;;;1.08;0.30;;;;;;;;;;4965173;28;20030;-82
2023/03/14 10:32:38;;;;;;;1.13;0.43;;;;;;;;;;4965786;28;20058;-82
2023/03/14 10:35:12;;;;;;;0.20;0.20;;;;;;;;;;4968368;28;20030;-82
2023/03/14 10:37:50;;;;;;;0.30;0.30;;;;;;;;;;4968312;28;20112;-83
2023/03/14 10:42:50;;;;;;;0.20;0.20;;;;;;;;;;4989699;28;20054;-86
2023/03/14 10:45:42;;;;;;;2.33;0.50;;;;;;;;;;4973256;28;20023;-86
2023/03/14 10:48:31;;;;;;;0.95;0.28;;;;;;;;;;4994722;28;20063;-86
2023/03/14 10:51:10;;;;;;;0.30;0.30;;;;;;;;;;4995123;28;20118;-86
2023/03/14 10:53:45;;;;;;;0.15;0.15;;;;;;;;;;4979598;28;20058;-87
2023/03/14 10:56:22;;;;;;;0.22;0.22;;;;;;;;;;4993075;28;20062;-87
2023/03/14 10:58:50;;;;;;;0.20;0.20;;;;;;;;;;4969293;28;20042;-85
2023/03/14 11:01:23;;;;;;;0.40;0.20;;;;;;;;;;4984132;28;20069;-87
2023/03/14 11:04:12;;;;;;;0.80;0.38;;;;;;;;;;4978945;28;20070;-87
2023/03/14 11:07:06;;;;;;;0.47;0.20;;;;;;;;;;4976850;28;20058;-85
2023/03/14 11:09:51;;;;;;;0.20;0.20;;;;;;;;;;4967330;28;20019;-87
2023/03/14 11:12:20;;;;;;;0.20;0.17;;;;;;;;;;4974617;28;20029;-87
2023/03/14 11:14:53;;;;;;;0.30;0.20;;;;;;;;;;4987029;28;20941;-86
2023/03/14 11:17:40;;;;;;;0.60;0.30;;;;;;;;;;4985999;28;20999;-86
2023/03/14 11:20:41;;;;;;;0.20;0.20;;;;;;;;;;4968398;28;20011;-86
2023/03/14 11:23:06;;;;;;;0.43;0.30;;;;;;;;;;4967069;28;20023;-86
2023/03/14 11:25:45;;;;;;;0.20;0.20;;;;;;;;;;4966154;28;20098;-84
2023/03/14 11:28:20;;;;;;;3.50;0.65;;;;;;;;;;4963998;28;20027;-84
2023/03/14 11:31:13;;;;;;;0.22;0.22;;;;;;;;;;4969277;28;20018;-84
2023/03/14 11:33:50;;;;;;;0.17;0.17;;;;;;;;;;4968566;28;20058;-86
2023/03/14 11:36:21;;;;;;;0.13;0.13;;;;;;;;;;4988126;28;20038;-84
2023/03/14 11:38:54;;;;;;;0.20;0.20;;;;;;;;;;4963943;28;20610;-84
2023/03/14 11:41:25;;;;;;;0.20;0.20;;;;;;;;;;4958557;28;20058;-84
2023/03/14 11:43:55;;;;;;;0.15;0.15;;;;;;;;;;4963665;28;20038;-84
2023/03/14 11:46:28;;;;;;;0.30;0.30;;;;;;;;;;4983067;28;20094;-83
2023/03/14 11:49:17;;;;;;;5.93;0.55;;;;;;;;;;4968216;28;20015;-84
2023/03/14 11:51:46;;;;;;;0.38;0.38;;;;;;;;;;4995988;28;20054;-84
2023/03/14 11:54:12;;;;;;;0.20;0.20;;;;;;;;;;4992372;28;20109;-84
2023/03/14 11:56:46;;;;;;;0.20;0.20;;;;;;;;;;4978442;28;20041;-84
2023/03/14 11:59:19;;;;;;;0.65;0.15;;;;;;;;;;4977957;28;20031;-84
2023/03/14 12:02:15;;;;;;;0.63;0.38;;;;;;;;;;4981109;28;20082;-83
2023/03/14 12:05:16;;;;;;;0.20;0.13;;;;;;;;;;4980345;28;20027;-87
2023/03/14 12:07:53;;;;;;;0.20;0.20;;;;;;;;;;4970069;28;20022;-86
2023/03/14 12:10:26;;;;;;;1.30;0.60;;;;;;;;;;4987974;28;20042;-87
2023/03/14 12:12:51;;;;;;;;;;;;;;;;;;4968548;28;20047;-83
2023/03/14 12:15:22;;;;;;;0.40;0.20;;;;;;;;;;4971552;28;19906;-84
2023/03/14 12:17:55;;;;;;;1.35;0.50;;;;;;;;;;4983866;28;20039;-86
2023/03/14 12:20:38;;;;;;;0.25;0.25;;;;;;;;;;4960284;28;20037;-85
2023/03/14 12:23:10;;;;;;;0.22;0.22;;;;;;;;;;4959688;28;20065;-84
2023/03/14 12:25:35;;;;;;;0.15;0.15;;;;;;;;;;4975772;28;20094;-85
2023/03/14 12:28:29;;;;;;;1.05;0.30;;;;;;;;;;4986754;28;20046;-85
2023/03/14 12:30:54;;;;;;;0.57;0.20;;;;;;;;;;4988113;28;20045;-85
2023/03/14 12:33:26;;;;;;;0.20;0.20;;;;;;;;;;4988989;28;20030;-85
2023/03/14 12:36:00;;;;;;;;;;;;;;;;;;4987759;28;20031;-84
2023/03/14 12:39:07;;;;;;;0.38;0.38;;;;;;;;;;4968959;28;19942;-84
2023/03/14 12:41:44;;;;;;;0.55;0.55;;;;;;;;;;4964969;28;20041;-86
2023/03/14 12:44:28;;;;;;;0.52;0.52;;;;;;;;;;4979492;28;20089;-86
2023/03/14 12:46:54;;;;;;;1.77;0.55;;;;;;;;;;4964815;28;20019;-85
2023/03/14 12:49:20;;;;;;;0.47;0.47;;;;;;;;;;4971738;28;20030;-87
2023/03/14 12:51:45;;;;;;;1.85;0.40;;;;;;;;;;4951346;28;20065;-86
2023/03/14 12:54:26;;;;;;;1.00;0.60;;;;;;;;;;4961005;28;20045;-86
2023/03/14 12:57:04;;;;;;;0.63;0.57;;;;;;;;;;4976480;28;20030;-88
2023/03/14 12:59:45;;;;;;;0.93;0.65;;;;;;;;;;4979196;28;20027;-87
2023/03/14 13:02:39;;;;;;;0.40;0.40;;;;;;;;;;4962361;28;20027;-88
2023/03/14 13:05:10;;;;;;;1.08;0.38;;;;;;;;;;4963379;28;20022;-89
2023/03/14 13:07:59;;;;;;;1.23;0.50;;;;;;;;;;4961222;28;20102;-88
2023/03/14 13:10:39;;;;;;;0.43;0.43;;;;;;;;;;4961496;28;20031;-87
2023/03/14 13:13:20;;;;;;;1.05;0.50;;;;;;;;;;4962208;28;20027;-88
2023/03/14 13:15:47;;;;;;;0.43;0.43;;;;;;;;;;4957810;28;20035;-87
2023/03/14 13:18:16;;;;;;;0.75;0.45;;;;;;;;;;4978676;28;20022;-88
2023/03/14 13:20:50;;;;;;;0.60;0.60;;;;;;;;;;4976653;28;20035;-87
2023/03/14 13:23:23;;;;;;;0.22;0.22;;;;;;;;;;4964748;28;20031;-87
2023/03/14 13:25:49;;;;;;;0.70;0.40;;;;;;;;;;4966631;28;20050;-87
2023/03/14 13:28:15;;;;;;;1.85;0.50;;;;;;;;;;4970277;28;20031;-87
2023/03/14 13:30:47;;;;;;;0.38;0.38;;;;;;;;;;4963465;28;20061;-88
2023/03/14 13:33:15;;;;;;;0.43;0.30;;;;;;;;;;4977804;28;20030;-88
2023/03/14 13:35:49;;;;;;;0.30;0.30;;;;;;;;;;4983702;28;20556;-87
2023/03/14 13:38:18;;;;;;;1.13;0.73;;;;;;;;;;4972987;28;20030;-88
2023/03/14 13:40:45;;;;;;;1.98;0.60;;;;;;;;;;4973579;28;20925;-87
2023/03/14 13:43:15;;;;;;;2.63;0.90;;;;;;;;;;4963887;28;20503;-87
2023/03/14 13:45:56;;;;;;;0.73;0.47;;;;;;;;;;4980591;28;20034;-88
2023/03/14 13:48:25;;;;;;;0.63;0.43;;;;;;;;;;4977193;28;20536;-87
2023/03/14 13:51:03;;;;;;;1.13;0.60;;;;;;;;;;4981535;28;20126;-88
2023/03/14 13:53:28;;;;;;;0.70;0.52;;;;;;;;;;4989038;28;20026;-88
2023/03/14 13:55:54;;;;;;;3.58;0.68;;;;;;;;;;4971813;28;20030;-87
2023/03/14 13:58:29;;;;;;;2.30;0.82;;;;;;;;;;4974406;28;20023;-87
2023/03/14 14:01:02;;;;;;;3.30;0.55;;;;;;;;;;4969844;28;20485;-89
2023/03/14 14:03:29;;;;;;;0.93;0.40;;;;;;;;;;4965157;28;20025;-88
2023/03/14 14:05:57;;;;;;;0.47;0.47;;;;;;;;;;4968979;28;20058;-87
2023/03/14 14:08:23;;;;;;;0.20;0.20;;;;;;;;;;4955427;28;20026;-87
2023/03/14 14:10:49;;;;;;;3.70;0.77;;;;;;;;;;4976699;28;20392;-88
2023/03/14 14:13:18;;;;;;;0.90;0.50;;;;;;;;;;4961028;28;20489;-88
2023/03/14 14:15:48;;;;;;;0.90;0.43;;;;;;;;;;4991048;28;20022;-86
2023/03/14 14:18:18;;;;;;;0.47;0.35;;;;;;;;;;4964439;28;20031;-89
2023/03/14 14:20:45;;;;;;;0.80;0.60;;;;;;;;;;4978286;28;20027;-87
2023/03/14 14:23:13;;;;;;;0.95;0.50;;;;;;;;;;4972540;28;20031;-87
2023/03/14 14:25:39;;;;;;;1.65;0.35;;;;;;;;;;4965583;28;20151;-87
2023/03/14 14:28:17;;;;;;;4.72;0.80;;;;;;;;;;4963433;28;20500;-87
2023/03/14 14:30:43;;;;;;;0.70;0.50;;;;;;;;;;4985606;28;20082;-87
2023/03/14 14:33:21;;;;;;;0.30;0.30;;;;;;;;;;4976968;28;20062;-89
2023/03/14 14:35:54;;;;;;;0.30;0.30;;;;;;;;;;4980091;28;20038;-89
2023/03/14 14:38:20;;;;;;;1.30;0.60;;;;;;;;;;4964838;28;20022;-89
2023/03/14 14:40:49;;;;;;;1.48;0.50;;;;;;;;;;4969549;28;20102;-89
2023/03/14 14:43:22;;;;;;;1.08;0.50;;;;;;;;;;4965617;28;20440;-89
2023/03/14 14:45:51;;;;;;;0.93;0.68;;;;;;;;;;4978315;28;20058;-88
2023/03/14 14:48:20;;;;;;;1.13;0.32;;;;;;;;;;4967964;28;20019;-88
2023/03/14 14:50:55;;;;;;;0.73;0.50;;;;;;;;;;4980314;28;20022;-87
2023/03/14 14:53:30;;;;;;;2.08;0.35;;;;;;;;;;4978583;28;20027;-87
2023/03/14 14:55:59;;;;;;;3.08;0.63;;;;;;;;;;4967889;28;20057;-87